sensor_id;sensor_type;location;lat;lon;timestamp;pressure;altitude;pressure_sealevel;temperature;humidity
14689;BME280;7432;48.728;9.154;2023-08-31T00:02:22;145193.75;;;13.83;nan
14689;BME280;7432;48.728;9.154;2023-08-31T00:04:51;145201.03;;;13.86;nan
14689;BME280;7432;48.728;9.154;2023-08-31T00:07:17;145193.75;;;13.83;nan
14689;BME280;7432;48.728;9.154;2023-08-31T00:09:44;145176.78;;;13.76;nan
14689;BME280;7432;48.728;9.154;2023-08-31T00:12:10;145182.84;;;13.79;nan
14689;BME280;7432;48.728;9.154;2023-08-31T00:14:38;145187.69;;;13.81;nan
14689;BME280;7432;48.728;9.154;2023-08-31T00:17:04;145192.53;;;13.83;nan
14689;BME280;7432;48.728;9.154;2023-08-31T00:19:31;145190.13;;;13.82;nan
14689;BME280;7432;48.728;9.154;2023-08-31T00:21:57;145180.41;;;13.78;nan
14689;BME280;7432;48.728;9.154;2023-08-31T00:24:23;145178.00;;;13.77;nan
14689;BME280;7432;48.728;9.154;2023-08-31T00:26:55;145165.81;;;13.72;nan
14689;BME280;7432;48.728;9.154;2023-08-31T00:29:21;145134.28;;;13.58;nan
14689;BME280;7432;48.728;9.154;2023-08-31T00:31:49;145144.03;;;13.62;nan
14689;BME280;7432;48.728;9.154;2023-08-31T00:34:16;145131.91;;;13.57;nan
14689;BME280;7432;48.728;9.154;2023-08-31T00:36:42;145137.97;;;13.60;nan
14689;BME280;7432;48.728;9.154;2023-08-31T00:39:09;145137.97;;;13.60;nan
14689;BME280;7432;48.728;9.154;2023-08-31T00:41:36;145139.19;;;13.60;nan
14689;BME280;7432;48.728;9.154;2023-08-31T00:44:03;145147.63;;;13.64;nan
14689;BME280;7432;48.728;9.154;2023-08-31T00:46:30;145100.31;;;13.44;nan
14689;BME280;7432;48.728;9.154;2023-08-31T00:48:58;145114.88;;;13.50;nan
14689;BME280;7432;48.728;9.154;2023-08-31T00:51:25;145088.22;;;13.39;nan
14689;BME280;7432;48.728;9.154;2023-08-31T00:53:52;145089.44;;;13.40;nan
14689;BME280;7432;48.728;9.154;2023-08-31T00:56:20;145061.53;;;13.28;nan
14689;BME280;7432;48.728;9.154;2023-08-31T00:58:46;145028.78;;;13.15;nan
14689;BME280;7432;48.728;9.154;2023-08-31T01:01:18;145037.28;;;13.18;nan
14689;BME280;7432;48.728;9.154;2023-08-31T01:03:52;145022.72;;;13.12;nan
14689;BME280;7432;48.728;9.154;2023-08-31T01:06:28;144997.22;;;13.01;nan
14689;BME280;7432;48.728;9.154;2023-08-31T01:09:05;144988.72;;;12.98;nan
14689;BME280;7432;48.728;9.154;2023-08-31T01:11:43;144963.25;;;12.87;nan
14689;BME280;7432;48.728;9.154;2023-08-31T01:14:16;144958.44;;;12.85;nan
14689;BME280;7432;48.728;9.154;2023-08-31T01:16:44;144937.81;;;12.77;nan
14689;BME280;7432;48.728;9.154;2023-08-31T01:19:21;144924.47;;;12.71;nan
14689;BME280;7432;48.728;9.154;2023-08-31T01:21:54;144919.66;;;12.69;nan
14689;BME280;7432;48.728;9.154;2023-08-31T01:24:25;144888.13;;;12.56;nan
14689;BME280;7432;48.728;9.154;2023-08-31T01:26:52;144884.47;;;12.55;nan
14689;BME280;7432;48.728;9.154;2023-08-31T01:29:19;144876.03;;;12.51;nan
14689;BME280;7432;48.728;9.154;2023-08-31T01:31:45;144863.88;;;12.46;nan
14689;BME280;7432;48.728;9.154;2023-08-31T01:34:12;144859.03;;;12.44;nan
14689;BME280;7432;48.728;9.154;2023-08-31T01:36:42;144851.75;;;12.41;nan
14689;BME280;7432;48.728;9.154;2023-08-31T01:39:13;144849.38;;;12.40;nan
14689;BME280;7432;48.728;9.154;2023-08-31T01:41:45;144842.09;;;12.37;nan
14689;BME280;7432;48.728;9.154;2023-08-31T01:44:15;144838.44;;;12.35;nan
14689;BME280;7432;48.728;9.154;2023-08-31T01:46:46;144828.75;;;12.31;nan
14689;BME280;7432;48.728;9.154;2023-08-31T01:49:12;144820.25;;;12.28;nan
14689;BME280;7432;48.728;9.154;2023-08-31T01:51:39;144810.59;;;12.24;nan
14689;BME280;7432;48.728;9.154;2023-08-31T01:54:05;144819.03;;;12.27;nan
14689;BME280;7432;48.728;9.154;2023-08-31T01:56:32;144828.75;;;12.31;nan
14689;BME280;7432;48.728;9.154;2023-08-31T01:59:00;144837.19;;;12.35;nan
14689;BME280;7432;48.728;9.154;2023-08-31T02:01:26;144877.19;;;12.52;nan
14689;BME280;7432;48.728;9.154;2023-08-31T02:03:52;144888.13;;;12.56;nan
14689;BME280;7432;48.728;9.154;2023-08-31T02:06:19;144894.19;;;12.59;nan
14689;BME280;7432;48.728;9.154;2023-08-31T02:08:45;144909.91;;;12.65;nan
14689;BME280;7432;48.728;9.154;2023-08-31T02:11:12;144914.81;;;12.67;nan
14689;BME280;7432;48.728;9.154;2023-08-31T02:13:39;144915.97;;;12.68;nan
14689;BME280;7432;48.728;9.154;2023-08-31T02:16:07;144915.97;;;12.68;nan
14689;BME280;7432;48.728;9.154;2023-08-31T02:18:34;144911.16;;;12.66;nan
14689;BME280;7432;48.728;9.154;2023-08-31T02:21:00;144906.31;;;12.64;nan
14689;BME280;7432;48.728;9.154;2023-08-31T02:23:26;144897.81;;;12.60;nan
14689;BME280;7432;48.728;9.154;2023-08-31T02:25:53;144902.69;;;12.62;nan
14689;BME280;7432;48.728;9.154;2023-08-31T02:28:19;144885.69;;;12.55;nan
14689;BME280;7432;48.728;9.154;2023-08-31T02:30:46;144905.09;;;12.63;nan
14689;BME280;7432;48.728;9.154;2023-08-31T02:33:24;144926.91;;;12.72;nan
14689;BME280;7432;48.728;9.154;2023-08-31T02:35:51;144931.75;;;12.74;nan
14689;BME280;7432;48.728;9.154;2023-08-31T02:38:17;144949.94;;;12.82;nan
14689;BME280;7432;48.728;9.154;2023-08-31T02:40:46;144957.22;;;12.85;nan
14689;BME280;7432;48.728;9.154;2023-08-31T02:43:12;144959.66;;;12.86;nan
14689;BME280;7432;48.728;9.154;2023-08-31T02:45:39;144974.22;;;12.92;nan
14689;BME280;7432;48.728;9.154;2023-08-31T02:48:06;144974.22;;;12.92;nan
14689;BME280;7432;48.728;9.154;2023-08-31T02:50:35;144966.94;;;12.89;nan
14689;BME280;7432;48.728;9.154;2023-08-31T02:53:02;144979.03;;;12.94;nan
14689;BME280;7432;48.728;9.154;2023-08-31T02:55:28;144974.22;;;12.92;nan
14689;BME280;7432;48.728;9.154;2023-08-31T02:57:55;144954.81;;;12.84;nan
14689;BME280;7432;48.728;9.154;2023-08-31T03:00:21;144973.00;;;12.91;nan
14689;BME280;7432;48.728;9.154;2023-08-31T03:02:48;144975.38;;;12.92;nan
14689;BME280;7432;48.728;9.154;2023-08-31T03:05:15;144988.72;;;12.98;nan
14689;BME280;7432;48.728;9.154;2023-08-31T03:07:42;144975.38;;;12.92;nan
14689;BME280;7432;48.728;9.154;2023-08-31T03:10:09;144968.16;;;12.89;nan
14689;BME280;7432;48.728;9.154;2023-08-31T03:12:37;144959.66;;;12.86;nan
14689;BME280;7432;48.728;9.154;2023-08-31T03:15:05;144951.16;;;12.82;nan
14689;BME280;7432;48.728;9.154;2023-08-31T03:17:32;144936.59;;;12.76;nan
14689;BME280;7432;48.728;9.154;2023-08-31T03:19:58;144937.81;;;12.77;nan
14689;BME280;7432;48.728;9.154;2023-08-31T03:22:25;144919.66;;;12.69;nan
14689;BME280;7432;48.728;9.154;2023-08-31T03:24:52;144923.25;;;12.71;nan
14689;BME280;7432;48.728;9.154;2023-08-31T03:27:19;144913.59;;;12.67;nan
14689;BME280;7432;48.728;9.154;2023-08-31T03:29:45;144882.09;;;12.54;nan
14689;BME280;7432;48.728;9.154;2023-08-31T03:32:12;144857.81;;;12.43;nan
14689;BME280;7432;48.728;9.154;2023-08-31T03:34:38;144837.19;;;12.35;nan
14689;BME280;7432;48.728;9.154;2023-08-31T03:37:05;144839.63;;;12.36;nan
14689;BME280;7432;48.728;9.154;2023-08-31T03:39:31;144823.91;;;12.29;nan
14689;BME280;7432;48.728;9.154;2023-08-31T03:41:59;144810.59;;;12.24;nan
14689;BME280;7432;48.728;9.154;2023-08-31T03:44:25;144827.53;;;12.31;nan
14689;BME280;7432;48.728;9.154;2023-08-31T03:46:52;144817.81;;;12.27;nan
14689;BME280;7432;48.728;9.154;2023-08-31T03:49:18;144825.09;;;12.30;nan
14689;BME280;7432;48.728;9.154;2023-08-31T03:51:44;144827.53;;;12.31;nan
14689;BME280;7432;48.728;9.154;2023-08-31T03:54:11;144842.09;;;12.37;nan
14689;BME280;7432;48.728;9.154;2023-08-31T03:56:38;144845.69;;;12.38;nan
14689;BME280;7432;48.728;9.154;2023-08-31T03:59:05;144846.91;;;12.39;nan
14689;BME280;7432;48.728;9.154;2023-08-31T04:01:32;144851.75;;;12.41;nan
14689;BME280;7432;48.728;9.154;2023-08-31T04:03:59;144846.91;;;12.39;nan
14689;BME280;7432;48.728;9.154;2023-08-31T04:06:25;144848.13;;;12.39;nan
14689;BME280;7432;48.728;9.154;2023-08-31T04:08:53;144844.47;;;12.38;nan
14689;BME280;7432;48.728;9.154;2023-08-31T04:11:20;144844.47;;;12.38;nan
14689;BME280;7432;48.728;9.154;2023-08-31T04:13:46;144844.47;;;12.38;nan
14689;BME280;7432;48.728;9.154;2023-08-31T04:16:14;144848.13;;;12.39;nan
14689;BME280;7432;48.728;9.154;2023-08-31T04:18:40;144831.16;;;12.32;nan
14689;BME280;7432;48.728;9.154;2023-08-31T04:21:08;144823.91;;;12.29;nan
14689;BME280;7432;48.728;9.154;2023-08-31T04:23:34;144820.25;;;12.28;nan
14689;BME280;7432;48.728;9.154;2023-08-31T04:26:09;144804.50;;;12.21;nan
14689;BME280;7432;48.728;9.154;2023-08-31T04:28:35;144810.59;;;12.24;nan
14689;BME280;7432;48.728;9.154;2023-08-31T04:31:04;144786.31;;;12.14;nan
14689;BME280;7432;48.728;9.154;2023-08-31T04:33:33;144773.00;;;12.08;nan
14689;BME280;7432;48.728;9.154;2023-08-31T04:36:00;144747.56;;;11.98;nan
14689;BME280;7432;48.728;9.154;2023-08-31T04:38:26;144741.50;;;11.95;nan
14689;BME280;7432;48.728;9.154;2023-08-31T04:40:53;144725.75;;;11.88;nan
14689;BME280;7432;48.728;9.154;2023-08-31T04:43:20;144713.63;;;11.83;nan
14689;BME280;7432;48.728;9.154;2023-08-31T04:45:46;144719.69;;;11.86;nan
14689;BME280;7432;48.728;9.154;2023-08-31T04:48:12;144718.50;;;11.85;nan
14689;BME280;7432;48.728;9.154;2023-08-31T04:50:42;144717.28;;;11.85;nan
14689;BME280;7432;48.728;9.154;2023-08-31T04:53:08;144711.25;;;11.82;nan
14689;BME280;7432;48.728;9.154;2023-08-31T04:55:35;144730.63;;;11.91;nan
14689;BME280;7432;48.728;9.154;2023-08-31T04:58:01;144726.94;;;11.89;nan
14689;BME280;7432;48.728;9.154;2023-08-31T05:00:28;144720.91;;;11.86;nan
14689;BME280;7432;48.728;9.154;2023-08-31T05:02:55;144737.91;;;11.94;nan
14689;BME280;7432;48.728;9.154;2023-08-31T05:05:21;144746.34;;;11.97;nan
14689;BME280;7432;48.728;9.154;2023-08-31T05:07:49;144742.72;;;11.96;nan
14689;BME280;7432;48.728;9.154;2023-08-31T05:10:15;144759.66;;;12.03;nan
14689;BME280;7432;48.728;9.154;2023-08-31T05:12:42;144773.00;;;12.08;nan
14689;BME280;7432;48.728;9.154;2023-08-31T05:15:09;144802.09;;;12.20;nan
14689;BME280;7432;48.728;9.154;2023-08-31T05:17:35;144817.81;;;12.27;nan
14689;BME280;7432;48.728;9.154;2023-08-31T05:20:02;144838.44;;;12.35;nan
14689;BME280;7432;48.728;9.154;2023-08-31T05:22:30;144849.38;;;12.40;nan
14689;BME280;7432;48.728;9.154;2023-08-31T05:24:57;144882.09;;;12.54;nan
14689;BME280;7432;48.728;9.154;2023-08-31T05:27:25;144907.53;;;12.64;nan
14689;BME280;7432;48.728;9.154;2023-08-31T05:29:52;144922.09;;;12.70;nan
14689;BME280;7432;48.728;9.154;2023-08-31T05:32:18;144935.41;;;12.76;nan
14689;BME280;7432;48.728;9.154;2023-08-31T05:34:44;144936.59;;;12.76;nan
14689;BME280;7432;48.728;9.154;2023-08-31T05:37:11;144943.88;;;12.79;nan
14689;BME280;7432;48.728;9.154;2023-08-31T05:39:37;144949.94;;;12.82;nan
14689;BME280;7432;48.728;9.154;2023-08-31T05:42:05;144958.44;;;12.85;nan
14689;BME280;7432;48.728;9.154;2023-08-31T05:44:31;144989.94;;;12.98;nan
14689;BME280;7432;48.728;9.154;2023-08-31T05:46:58;145017.88;;;13.10;nan
14689;BME280;7432;48.728;9.154;2023-08-31T05:49:24;145028.78;;;13.15;nan
14689;BME280;7432;48.728;9.154;2023-08-31T05:51:50;145066.41;;;13.30;nan
14689;BME280;7432;48.728;9.154;2023-08-31T05:54:17;145097.94;;;13.43;nan
14689;BME280;7432;48.728;9.154;2023-08-31T05:56:43;145088.22;;;13.39;nan
14689;BME280;7432;48.728;9.154;2023-08-31T05:59:11;145101.53;;;13.45;nan
14689;BME280;7432;48.728;9.154;2023-08-31T06:01:37;145127.00;;;13.55;nan
14689;BME280;7432;48.728;9.154;2023-08-31T06:04:04;145136.75;;;13.59;nan
14689;BME280;7432;48.728;9.154;2023-08-31T06:06:30;145168.28;;;13.73;nan
14689;BME280;7432;48.728;9.154;2023-08-31T06:08:57;145221.66;;;13.95;nan
14689;BME280;7432;48.728;9.154;2023-08-31T06:11:24;145213.16;;;13.91;nan
14689;BME280;7432;48.728;9.154;2023-08-31T06:13:50;145237.44;;;14.01;nan
14689;BME280;7432;48.728;9.154;2023-08-31T06:16:18;145224.09;;;13.96;nan
14689;BME280;7432;48.728;9.154;2023-08-31T06:18:44;145261.72;;;14.11;nan
14689;BME280;7432;48.728;9.154;2023-08-31T06:21:11;145338.19;;;14.43;nan
14689;BME280;7432;48.728;9.154;2023-08-31T06:23:37;145381.94;;;14.61;nan
14689;BME280;7432;48.728;9.154;2023-08-31T06:26:03;145396.44;;;14.67;nan
14689;BME280;7432;48.728;9.154;2023-08-31T06:28:30;145492.41;;;15.07;nan
14689;BME280;7432;48.728;9.154;2023-08-31T06:30:56;145877.66;;;16.67;nan
14689;BME280;7432;48.728;9.154;2023-08-31T06:33:24;146130.72;;;17.72;nan
14689;BME280;7432;48.728;9.154;2023-08-31T06:35:50;146486.25;;;19.19;nan
14689;BME280;7432;48.728;9.154;2023-08-31T06:38:17;146944.72;;;21.09;nan
14689;BME280;7432;48.728;9.154;2023-08-31T06:40:44;147468.47;;;23.25;nan
14689;BME280;7432;48.728;9.154;2023-08-31T06:43:10;147753.28;;;24.43;nan
14689;BME280;7432;48.728;9.154;2023-08-31T06:45:36;147997.97;;;25.44;nan
14689;BME280;7432;48.728;9.154;2023-08-31T06:48:04;147820.53;;;24.70;nan
14689;BME280;7432;48.728;9.154;2023-08-31T06:50:33;147567.47;;;23.66;nan
14689;BME280;7432;48.728;9.154;2023-08-31T06:53:01;147247.41;;;22.34;nan
14689;BME280;7432;48.728;9.154;2023-08-31T06:55:28;147045.97;;;21.51;nan
14689;BME280;7432;48.728;9.154;2023-08-31T06:57:54;146895.88;;;20.89;nan
14689;BME280;7432;48.728;9.154;2023-08-31T07:00:21;146698.34;;;20.07;nan
14689;BME280;7432;48.728;9.154;2023-08-31T07:02:47;146700.78;;;20.08;nan
14689;BME280;7432;48.728;9.154;2023-08-31T07:05:14;146682.47;;;20.00;nan
14689;BME280;7432;48.728;9.154;2023-08-31T07:07:42;146666.66;;;19.94;nan
14689;BME280;7432;48.728;9.154;2023-08-31T07:10:08;146625.19;;;19.77;nan
14689;BME280;7432;48.728;9.154;2023-08-31T07:12:34;146749.56;;;20.28;nan
14689;BME280;7432;48.728;9.154;2023-08-31T07:15:01;146941.06;;;21.07;nan
14689;BME280;7432;48.728;9.154;2023-08-31T07:17:28;147139.97;;;21.90;nan
14689;BME280;7432;48.728;9.154;2023-08-31T07:19:55;147113.06;;;21.78;nan
14689;BME280;7432;48.728;9.154;2023-08-31T07:22:22;146905.66;;;20.93;nan
14689;BME280;7432;48.728;9.154;2023-08-31T07:24:49;146701.97;;;20.08;nan
14689;BME280;7432;48.728;9.154;2023-08-31T07:27:16;146684.94;;;20.01;nan
14689;BME280;7432;48.728;9.154;2023-08-31T07:29:42;146683.69;;;20.01;nan
14689;BME280;7432;48.728;9.154;2023-08-31T07:32:09;146830.03;;;20.61;nan
14689;BME280;7432;48.728;9.154;2023-08-31T07:34:36;146833.69;;;20.63;nan
14689;BME280;7432;48.728;9.154;2023-08-31T07:37:02;146927.59;;;21.02;nan
14689;BME280;7432;48.728;9.154;2023-08-31T07:39:29;146894.66;;;20.88;nan
14689;BME280;7432;48.728;9.154;2023-08-31T07:41:57;146908.06;;;20.94;nan
14689;BME280;7432;48.728;9.154;2023-08-31T07:44:24;146855.63;;;20.72;nan
14689;BME280;7432;48.728;9.154;2023-08-31T07:46:51;146826.41;;;20.60;nan
14689;BME280;7432;48.728;9.154;2023-08-31T07:49:17;146842.22;;;20.66;nan
14689;BME280;7432;48.728;9.154;2023-08-31T07:51:43;146841.00;;;20.66;nan
14689;BME280;7432;48.728;9.154;2023-08-31T07:54:10;146822.72;;;20.58;nan
14689;BME280;7432;48.728;9.154;2023-08-31T07:56:37;146875.16;;;20.80;nan
14689;BME280;7432;48.728;9.154;2023-08-31T07:59:06;146966.66;;;21.18;nan
14689;BME280;7432;48.728;9.154;2023-08-31T08:01:33;146963.03;;;21.16;nan
14689;BME280;7432;48.728;9.154;2023-08-31T08:03:59;147331.69;;;22.69;nan
14689;BME280;7432;48.728;9.154;2023-08-31T08:06:26;147859.72;;;24.87;nan
14689;BME280;7432;48.728;9.154;2023-08-31T08:08:52;148388.56;;;27.04;nan
14689;BME280;7432;48.728;9.154;2023-08-31T08:11:19;148820.00;;;28.82;nan
14689;BME280;7432;48.728;9.154;2023-08-31T08:13:45;149302.22;;;30.80;nan
14689;BME280;7432;48.728;9.154;2023-08-31T08:16:13;149805.97;;;32.87;nan
14689;BME280;7432;48.728;9.154;2023-08-31T08:18:39;150119.59;;;34.16;nan
14689;BME280;7432;48.728;9.154;2023-08-31T08:21:06;150485.22;;;35.65;nan
14689;BME280;7432;48.728;9.154;2023-08-31T08:23:32;150472.88;;;35.60;nan
14689;BME280;7432;48.728;9.154;2023-08-31T08:25:59;150632.94;;;36.26;nan
14689;BME280;7432;48.728;9.154;2023-08-31T08:28:25;150740.13;;;36.70;nan
14689;BME280;7432;48.728;9.154;2023-08-31T08:30:53;150711.84;;;36.58;nan
14689;BME280;7432;48.728;9.154;2023-08-31T08:33:21;150842.41;;;37.12;nan
14689;BME280;7432;48.728;9.154;2023-08-31T08:35:48;150613.25;;;36.18;nan
14689;BME280;7432;48.728;9.154;2023-08-31T08:38:14;149962.16;;;33.51;nan
14689;BME280;7432;48.728;9.154;2023-08-31T08:40:40;149287.47;;;30.74;nan
14689;BME280;7432;48.728;9.154;2023-08-31T08:43:07;148970.84;;;29.44;nan
14689;BME280;7432;48.728;9.154;2023-08-31T08:45:36;148756.19;;;28.56;nan
14689;BME280;7432;48.728;9.154;2023-08-31T08:48:06;148361.59;;;26.93;nan
14689;BME280;7432;48.728;9.154;2023-08-31T08:50:35;148354.25;;;26.90;nan
14689;BME280;7432;48.728;9.154;2023-08-31T08:53:03;148251.34;;;26.48;nan
14689;BME280;7432;48.728;9.154;2023-08-31T08:55:29;147969.81;;;25.32;nan
14689;BME280;7432;48.728;9.154;2023-08-31T08:57:58;147710.53;;;24.25;nan
14689;BME280;7432;48.728;9.154;2023-08-31T09:00:25;147518.63;;;23.46;nan
14689;BME280;7432;48.728;9.154;2023-08-31T09:02:52;147252.28;;;22.36;nan
14689;BME280;7432;48.728;9.154;2023-08-31T09:05:18;147010.59;;;21.36;nan
14689;BME280;7432;48.728;9.154;2023-08-31T09:08:01;146927.59;;;21.02;nan
14689;BME280;7432;48.728;9.154;2023-08-31T09:10:33;146867.81;;;20.77;nan
14689;BME280;7432;48.728;9.154;2023-08-31T09:13:00;146753.25;;;20.30;nan
14689;BME280;7432;48.728;9.154;2023-08-31T09:15:36;147141.22;;;21.90;nan
14689;BME280;7432;48.728;9.154;2023-08-31T09:18:03;147257.16;;;22.38;nan
14689;BME280;7432;48.728;9.154;2023-08-31T09:20:30;147396.41;;;22.95;nan
14689;BME280;7432;48.728;9.154;2023-08-31T09:22:56;148175.47;;;26.17;nan
14689;BME280;7432;48.728;9.154;2023-08-31T09:25:24;148197.47;;;26.26;nan
14689;BME280;7432;48.728;9.154;2023-08-31T09:27:50;148294.22;;;26.66;nan
14689;BME280;7432;48.728;9.154;2023-08-31T09:30:17;148697.34;;;28.32;nan
14689;BME280;7432;48.728;9.154;2023-08-31T09:32:51;148457.09;;;27.33;nan
14689;BME280;7432;48.728;9.154;2023-08-31T09:35:18;148918.13;;;29.22;nan
14689;BME280;7432;48.728;9.154;2023-08-31T09:37:54;149212.66;;;30.43;nan
14689;BME280;7432;48.728;9.154;2023-08-31T09:40:22;148775.84;;;28.64;nan
14689;BME280;7432;48.728;9.154;2023-08-31T09:42:51;148663.03;;;28.17;nan
14689;BME280;7432;48.728;9.154;2023-08-31T09:45:17;148806.50;;;28.76;nan
14689;BME280;7432;48.728;9.154;2023-08-31T09:47:44;149044.47;;;29.74;nan
14689;BME280;7432;48.728;9.154;2023-08-31T09:50:11;149375.94;;;31.10;nan
14689;BME280;7432;48.728;9.154;2023-08-31T09:52:38;149798.63;;;32.84;nan
14689;BME280;7432;48.728;9.154;2023-08-31T09:55:06;149530.72;;;31.74;nan
14689;BME280;7432;48.728;9.154;2023-08-31T09:57:33;149318.19;;;30.87;nan
14689;BME280;7432;48.728;9.154;2023-08-31T10:00:01;148796.69;;;28.72;nan
14689;BME280;7432;48.728;9.154;2023-08-31T10:02:29;148263.56;;;26.53;nan
14689;BME280;7432;48.728;9.154;2023-08-31T10:04:58;148049.38;;;25.65;nan
14689;BME280;7432;48.728;9.154;2023-08-31T10:07:25;148006.53;;;25.47;nan
14689;BME280;7432;48.728;9.154;2023-08-31T10:09:52;147881.75;;;24.96;nan
14689;BME280;7432;48.728;9.154;2023-08-31T10:12:20;147620.06;;;23.88;nan
14689;BME280;7432;48.728;9.154;2023-08-31T10:14:47;147690.97;;;24.17;nan
14689;BME280;7432;48.728;9.154;2023-08-31T10:17:19;148299.09;;;26.68;nan
14689;BME280;7432;48.728;9.154;2023-08-31T10:19:47;148650.78;;;28.12;nan
14689;BME280;7432;48.728;9.154;2023-08-31T10:22:13;149038.31;;;29.72;nan
14689;BME280;7432;48.728;9.154;2023-08-31T10:24:58;148585.78;;;27.86;nan
14689;BME280;7432;48.728;9.154;2023-08-31T10:27:25;148126.44;;;25.97;nan
14689;BME280;7432;48.728;9.154;2023-08-31T10:29:51;147942.91;;;25.21;nan
14689;BME280;7432;48.728;9.154;2023-08-31T10:32:19;147842.59;;;24.80;nan
14689;BME280;7432;48.728;9.154;2023-08-31T10:35:04;147849.94;;;24.83;nan
14689;BME280;7432;48.728;9.154;2023-08-31T10:37:31;147788.75;;;24.57;nan
14689;BME280;7432;48.728;9.154;2023-08-31T10:40:06;147821.78;;;24.71;nan
14689;BME280;7432;48.728;9.154;2023-08-31T10:42:41;147688.50;;;24.16;nan
14689;BME280;7432;48.728;9.154;2023-08-31T10:45:08;147522.25;;;23.47;nan
14689;BME280;7432;48.728;9.154;2023-08-31T10:47:40;147437.94;;;23.13;nan
14689;BME280;7432;48.728;9.154;2023-08-31T10:50:19;147301.13;;;22.56;nan
14689;BME280;7432;48.728;9.154;2023-08-31T10:52:46;147201.00;;;22.15;nan
14689;BME280;7432;48.728;9.154;2023-08-31T10:55:13;147265.69;;;22.41;nan
14689;BME280;7432;48.728;9.154;2023-08-31T10:57:40;147323.13;;;22.65;nan
14689;BME280;7432;48.728;9.154;2023-08-31T11:00:07;147258.38;;;22.38;nan
14689;BME280;7432;48.728;9.154;2023-08-31T11:02:34;147247.41;;;22.34;nan
14689;BME280;7432;48.728;9.154;2023-08-31T11:05:06;147260.84;;;22.39;nan
14689;BME280;7432;48.728;9.154;2023-08-31T11:07:34;147186.34;;;22.09;nan
14689;BME280;7432;48.728;9.154;2023-08-31T11:10:12;147208.34;;;22.18;nan
14689;BME280;7432;48.728;9.154;2023-08-31T11:12:39;147174.16;;;22.04;nan
14689;BME280;7432;48.728;9.154;2023-08-31T11:15:06;147226.66;;;22.25;nan
14689;BME280;7432;48.728;9.154;2023-08-31T11:17:33;147187.59;;;22.09;nan
14689;BME280;7432;48.728;9.154;2023-08-31T11:20:00;147114.31;;;21.79;nan
14689;BME280;7432;48.728;9.154;2023-08-31T11:22:31;147026.44;;;21.43;nan
14689;BME280;7432;48.728;9.154;2023-08-31T11:24:59;147072.81;;;21.62;nan
14689;BME280;7432;48.728;9.154;2023-08-31T11:27:25;147161.97;;;21.99;nan
14689;BME280;7432;48.728;9.154;2023-08-31T11:29:52;147176.63;;;22.05;nan
14689;BME280;7432;48.728;9.154;2023-08-31T11:32:18;147157.09;;;21.97;nan
14689;BME280;7432;48.728;9.154;2023-08-31T11:34:45;147149.75;;;21.94;nan
14689;BME280;7432;48.728;9.154;2023-08-31T11:37:13;147243.72;;;22.32;nan
14689;BME280;7432;48.728;9.154;2023-08-31T11:39:48;147190.03;;;22.10;nan
14689;BME280;7432;48.728;9.154;2023-08-31T11:42:16;147223.00;;;22.24;nan
14689;BME280;7432;48.728;9.154;2023-08-31T11:44:43;147259.59;;;22.39;nan
14689;BME280;7432;48.728;9.154;2023-08-31T11:47:10;147319.47;;;22.64;nan
14689;BME280;7432;48.728;9.154;2023-08-31T11:49:37;147359.78;;;22.80;nan
14689;BME280;7432;48.728;9.154;2023-08-31T11:52:04;147420.84;;;23.06;nan
14689;BME280;7432;48.728;9.154;2023-08-31T11:54:30;147386.66;;;22.91;nan
14689;BME280;7432;48.728;9.154;2023-08-31T11:56:58;147277.91;;;22.47;nan
14689;BME280;7432;48.728;9.154;2023-08-31T11:59:25;147279.13;;;22.47;nan
14689;BME280;7432;48.728;9.154;2023-08-31T12:01:51;147335.38;;;22.70;nan
14689;BME280;7432;48.728;9.154;2023-08-31T12:04:20;147285.25;;;22.50;nan
14689;BME280;7432;48.728;9.154;2023-08-31T12:06:50;147292.56;;;22.53;nan
14689;BME280;7432;48.728;9.154;2023-08-31T12:09:17;147288.94;;;22.51;nan
14689;BME280;7432;48.728;9.154;2023-08-31T12:11:49;147310.88;;;22.60;nan
14689;BME280;7432;48.728;9.154;2023-08-31T12:14:21;147124.03;;;21.83;nan
14689;BME280;7432;48.728;9.154;2023-08-31T12:16:49;147158.28;;;21.97;nan
14689;BME280;7432;48.728;9.154;2023-08-31T12:19:15;147147.31;;;21.93;nan
14689;BME280;7432;48.728;9.154;2023-08-31T12:21:43;147070.41;;;21.61;nan
14689;BME280;7432;48.728;9.154;2023-08-31T12:24:10;147061.84;;;21.57;nan
14689;BME280;7432;48.728;9.154;2023-08-31T12:26:37;147069.16;;;21.60;nan
14689;BME280;7432;48.728;9.154;2023-08-31T12:29:04;147043.56;;;21.50;nan
14689;BME280;7432;48.728;9.154;2023-08-31T12:31:32;147032.53;;;21.45;nan
14689;BME280;7432;48.728;9.154;2023-08-31T12:33:59;146931.28;;;21.03;nan
14689;BME280;7432;48.728;9.154;2023-08-31T12:36:29;146922.72;;;21.00;nan
14689;BME280;7432;48.728;9.154;2023-08-31T12:38:56;146945.91;;;21.09;nan
14689;BME280;7432;48.728;9.154;2023-08-31T12:41:23;146989.88;;;21.27;nan
14689;BME280;7432;48.728;9.154;2023-08-31T12:43:50;146977.66;;;21.22;nan
14689;BME280;7432;48.728;9.154;2023-08-31T12:46:16;146943.50;;;21.08;nan
14689;BME280;7432;48.728;9.154;2023-08-31T12:48:44;146910.53;;;20.95;nan
14689;BME280;7432;48.728;9.154;2023-08-31T12:51:10;146897.13;;;20.89;nan
14689;BME280;7432;48.728;9.154;2023-08-31T12:53:37;146864.19;;;20.76;nan
14689;BME280;7432;48.728;9.154;2023-08-31T12:56:04;146827.59;;;20.60;nan
14689;BME280;7432;48.728;9.154;2023-08-31T12:58:31;146811.75;;;20.54;nan
14689;BME280;7432;48.728;9.154;2023-08-31T13:00:57;146714.19;;;20.14;nan
14689;BME280;7432;48.728;9.154;2023-08-31T13:03:24;146720.28;;;20.16;nan
14689;BME280;7432;48.728;9.154;2023-08-31T13:05:52;146753.25;;;20.30;nan
14689;BME280;7432;48.728;9.154;2023-08-31T13:08:18;146782.47;;;20.42;nan
14689;BME280;7432;48.728;9.154;2023-08-31T13:10:50;146775.16;;;20.39;nan
14689;BME280;7432;48.728;9.154;2023-08-31T13:13:17;146780.06;;;20.41;nan
14689;BME280;7432;48.728;9.154;2023-08-31T13:15:45;146800.75;;;20.49;nan
14689;BME280;7432;48.728;9.154;2023-08-31T13:18:11;146803.22;;;20.50;nan
14689;BME280;7432;48.728;9.154;2023-08-31T13:20:38;146826.41;;;20.60;nan
14689;BME280;7432;48.728;9.154;2023-08-31T13:23:06;146826.41;;;20.60;nan
14689;BME280;7432;48.728;9.154;2023-08-31T13:25:33;146886.09;;;20.85;nan